Latest Coastal Weather Observations for Swanbourne

IDW60701

Issued at 9:35 am WST Thursday 23 October 2014 (issued every 10 minutes, with the page automatically refreshed every 10 minutes)

About coastal observations | Map of coastal stations | Coastal observations for WA | Marine services | Other Formats
Station Details ID: 009215 Name: SWANBOURNE Lat: -31.96 Lon: 115.76 Height: 40.96 m
Data from the previous 72 hours. | See also: Recent months at Swanbourne
Date/Time
WST
Temp

°C
Wind Pressure Rain
since 9am
mm
Weather Cloud Vis
km
Sea
Height
m
Swell
Dir
 
Speed
knots
Gust
knots
hPa Trend Height
m
Period
s
Dir
23/09:30am 21.0 WNW 10 15 - - 0.0 - - - - - - -
23/09:00am 20.8 W 9 13 - - 4.6 - - - - - - -
23/08:30am 20.5 W 9 13 - - 4.6 - - - - - - -
23/08:00am 19.5 W 9 13 - - 4.6 - - - - - - -
23/07:30am 19.0 W 10 14 - - 4.6 - - - - - - -
23/07:00am 18.0 W 12 17 - - 4.6 - - - - - - -
23/06:30am 17.9 W 10 13 - - 4.6 - - - - - - -
23/06:00am 17.6 WNW 9 12 - - 4.6 Recent precip. - - - - - -
23/05:30am 16.9 W 7 12 - - 4.4 - - - - - - -
23/05:00am 17.0 W 8 11 - - 4.4 - - - - - - -
23/04:30am 16.6 WNW 9 12 - - 4.4 - - - - - - -
23/04:00am 16.6 WNW 10 13 - - 4.4 - - - - - - -
23/03:30am 16.0 W 9 14 - - 4.4 - - - - - - -
23/03:00am 17.6 WNW 12 18 - - 3.0 - - - - - - -
23/02:30am 17.4 WNW 11 17 - - 3.0 - - - - - - -
23/02:00am 17.3 WNW 11 16 - - 3.0 - - - - - - -
23/01:30am 16.0 N 6 10 - - 3.0 - - - - - - -
23/01:00am 15.2 N 5 6 - - 3.0 - - - - - - -
23/12:30am 15.7 N 5 7 - - 3.0 - - - - - - -
23/12:00am 16.8 NNW 6 11 - - 3.0 Recent precip. - - - - - -
 
Date/Time
WST
Temp

°C
Wind Pressure Rain
since 9am
mm
Weather Cloud Vis
km
Sea
Height
m
Swell
Dir
 
Speed
knots
Gust
knots
hPa Trend Height
m
Period
s
Dir
22/11:30pm 16.8 NNW 8 12 - - 2.8 - - - - - - -
22/11:00pm 16.2 NW 7 10 - - 2.8 - - - - - - -
22/10:30pm 15.6 NW 6 7 - - 2.8 - - - - - - -
22/10:00pm 15.9 NNW 5 7 - - 2.8 - - - - - - -
22/09:30pm 16.9 N 9 14 - - 1.4 - - - - - - -
22/09:00pm 19.0 NNW 13 18 - - 0.0 - - - - - - -
22/08:30pm 18.7 NW 14 20 - - 0.0 - - - - - - -
22/08:00pm 18.5 NW 14 19 - - 0.0 - - - - - - -
22/07:30pm 18.3 NW 9 15 - - 0.0 - - - - - - -
22/07:00pm 18.4 WNW 10 15 - - 0.0 - - - - - - -
22/06:30pm 18.7 WNW 12 16 - - 0.0 - - - - - - -
22/06:00pm 19.4 WNW 14 19 - - 0.0 - - - - - - -
22/05:30pm 19.8 WNW 15 23 - - 0.0 - - - - - - -
22/05:00pm 20.7 WNW 17 23 - - 0.0 - - - - - - -
22/04:30pm 21.4 WNW 16 24 - - 0.0 - - - - - - -
22/04:00pm 22.0 WNW 14 21 - - 0.0 - - - - - - -
22/03:38pm 22.4 NW 17 27 - - 0.0 - - - - - - -
22/03:30pm 22.0 WNW 21 29 - - 0.0 - - - - - - -
22/03:02pm 22.9 NW 15 26 - - 0.0 - - - - - - -
22/03:00pm 22.8 NW 16 26 - - 0.0 - - - - - - -
22/02:46pm 23.3 NW 15 25 - - 0.0 - - - - - - -
22/02:30pm 23.7 NW 15 24 - - 0.0 - - - - - - -
22/02:00pm 23.9 NW 15 20 - - 0.0 - - - - - - -
22/01:30pm 24.6 NW 14 20 - - 0.0 - - - - - - -
22/01:00pm 25.6 NW 12 16 - - 0.0 - - - - - - -
22/12:30pm 27.1 WNW 9 14 - - 0.0 - - - - - - -
22/12:00pm 31.3 N 10 17 - - 0.0 - - - - - - -
22/11:30am 30.1 NE 11 20 - - 0.0 - - - - - - -
22/11:00am 29.0 ENE 10 17 - - 0.0 - - - - - - -
22/10:30am 27.9 ENE 12 23 - - 0.0 - - - - - - -
22/10:00am 27.3 NE 9 15 - - 0.0 - - - - - - -
22/09:30am 25.6 NNE 11 17 - - 0.0 - - - - - - -
22/09:00am 25.0 NNE 8 15 - - 0.0 - - - - - - -
22/08:30am 23.8 NNE 9 19 - - 0.0 - - - - - - -
22/08:00am 21.7 ENE 15 23 - - 0.0 - - - - - - -
22/07:30am 20.8 E 15 22 - - 0.0 - - - - - - -
22/07:00am 19.2 E 14 21 - - 0.0 - - - - - - -
22/06:30am 18.1 E 14 21 - - 0.0 - - - - - - -
22/06:00am 17.9 E 15 23 - - 0.0 - - - - - - -
22/05:30am 17.7 E 17 27 - - 0.0 - - - - - - -
22/05:03am 17.7 E 15 26 - - 0.0 - - - - - - -
22/05:00am 17.7 E 15 24 - - 0.0 - - - - - - -
22/04:30am 17.8 E 15 23 - - 0.0 - - - - - - -
22/04:00am 17.9 E 12 20 - - 0.0 - - - - - - -
22/03:30am 18.1 E 12 19 - - 0.0 - - - - - - -
22/03:00am 18.3 E 11 17 - - 0.0 - - - - - - -
22/02:30am 18.8 E 9 16 - - 0.0 - - - - - - -
22/02:00am 19.0 E 9 15 - - 0.0 - - - - - - -
22/01:30am 18.6 E 9 12 - - 0.0 - - - - - - -
22/01:00am 17.5 E 8 11 - - 0.0 - - - - - - -
22/12:30am 16.8 E 6 9 - - 0.0 - - - - - - -
22/12:00am 15.6 E 7 9 - - 0.0 - - - - - - -
 
Date/Time
WST
Temp

°C
Wind Pressure Rain
since 9am
mm
Weather Cloud Vis
km
Sea
Height
m
Swell
Dir
 
Speed
knots
Gust
knots
hPa Trend Height
m
Period
s
Dir
21/11:30pm 15.3 E 5 7 - - 0.0 - - - - - - -
21/11:00pm 15.5 ESE 5 6 - - 0.0 - - - - - - -
21/10:30pm 16.0 ESE 7 9 - - 0.0 - - - - - - -
21/10:00pm 16.2 ESE 6 9 - - 0.0 - - - - - - -
21/09:30pm 16.6 SE 6 8 - - 0.0 - - - - - - -
21/09:00pm 17.3 SE 8 12 - - 0.0 - - - - - - -
21/08:30pm 17.3 SE 7 12 - - 0.0 - - - - - - -
21/08:00pm 16.9 SE 6 9 - - 0.0 - - - - - - -
21/07:30pm 16.6 S 4 7 - - 0.0 - - - - - - -
21/07:00pm 17.2 S 5 7 - - 0.0 - - - - - - -
21/06:30pm 17.7 S 5 7 - - 0.0 - - - - - - -
21/06:00pm 18.8 S 6 8 - - 0.0 - - - - - - -
21/05:30pm 19.8 SSW 7 11 - - 0.0 - - - - - - -
21/05:00pm 20.0 SSW 9 13 - - 0.0 - - - - - - -
21/04:30pm 19.8 SSW 11 16 - - 0.0 - - - - - - -
21/04:00pm 20.2 SSW 10 15 - - 0.0 - - - - - - -
21/03:30pm 20.2 SSW 11 17 - - 0.0 - - - - - - -
21/03:00pm 20.7 SW 11 15 - - 0.0 - - - - - - -
21/02:30pm 20.4 SW 11 14 - - 0.0 - - - - - - -
21/02:00pm 20.5 SW 10 14 - - 0.0 - - - - - - -
21/01:30pm 21.3 SW 10 14 - - 0.0 - - - - - - -
21/01:00pm 20.8 SW 11 14 - - 0.0 - - - - - - -
21/12:30pm 20.5 SW 9 13 - - 0.0 - - - - - - -
21/12:00pm 20.4 WSW 9 14 - - 0.0 - - - - - - -
21/11:30am 20.0 WSW 11 14 - - 0.0 - - - - - - -
21/11:00am 22.3 SSE 4 7 - - 0.0 - - - - - - -
21/10:30am 21.0 E 4 10 - - 0.0 - - - - - - -
21/10:00am 19.3 ESE 5 7 - - 0.0 - - - - - - -
21/09:30am 19.7 ESE 5 8 - - 0.0 - - - - - - -
21/09:00am 19.1 SE 5 10 - - 0.0 - - - - - - -
21/08:30am 17.4 ENE 4 8 - - 0.0 - - - - - - -
21/08:00am 17.4 E 3 6 - - 0.0 - - - - - - -
21/07:30am 15.6 ESE 5 7 - - 0.0 - - - - - - -
21/07:00am 14.1 E 5 7 - - 0.0 - - - - - - -
21/06:30am 12.4 E 5 6 - - 0.0 - - - - - - -
21/06:00am 10.9 E 6 7 - - 0.0 - - - - - - -
21/05:30am 10.6 E 6 8 - - 0.0 - - - - - - -
21/05:00am 10.7 E 5 6 - - 0.0 - - - - - - -
21/04:30am 10.9 E 5 6 - - 0.0 - - - - - - -
21/04:00am 11.1 E 5 6 - - 0.0 - - - - - - -
21/03:30am 11.6 E 5 6 - - 0.0 - - - - - - -
21/03:00am 11.8 E 5 5 - - 0.0 - - - - - - -
21/02:30am 11.9 ENE 4 5 - - 0.0 - - - - - - -
21/02:00am 12.0 ENE 4 5 - - 0.0 - - - - - - -
21/01:30am 12.4 ESE 4 4 - - 0.0 - - - - - - -
21/01:00am 12.7 ESE 4 4 - - 0.0 - - - - - - -
21/12:30am 13.0 SE 4 5 - - 0.0 - - - - - - -
21/12:00am 13.3 SE 4 5 - - 0.0 - - - - - - -
 
Date/Time
WST
Temp

°C
Wind Pressure Rain
since 9am
mm
Weather Cloud Vis
km
Sea
Height
m
Swell
Dir
 
Speed
knots
Gust
knots
hPa Trend Height
m
Period
s
Dir
20/11:30pm 13.6 ESE 4 4 - - 0.0 - - - - - - -
20/11:00pm 14.0 SSE 4 5 - - 0.0 - - - - - - -
20/10:30pm 13.9 SSE 3 5 - - 0.0 - - - - - - -
20/10:00pm 14.2 S 5 7 - - 0.0 - - - - - - -
20/09:30pm 14.7 S 5 6 - - 0.0 - - - - - - -
20/09:00pm 15.0 S 4 6 - - 0.0 - - - - - - -
20/08:30pm 15.4 S 6 10 - - 0.0 - - - - - - -
20/08:00pm 15.9 SSW 6 10 - - 0.0 - - - - - - -
20/07:30pm 15.8 S 6 8 - - 0.0 - - - - - - -
20/07:00pm 16.2 SSW 8 11 - - 0.0 - - - - - - -
20/06:30pm 16.4 SSW 8 12 - - 0.0 - - - - - - -
20/06:00pm 17.0 SSW 7 13 - - 0.0 - - - - - - -
20/05:30pm 18.3 SSW 10 14 - - 0.0 - - - - - - -
20/05:00pm 19.1 SSW 10 14 - - 0.0 - - - - - - -
20/04:30pm 19.2 WSW 9 14 - - 0.0 - - - - - - -
20/04:00pm 19.7 SW 9 15 - - 0.0 - - - - - - -
20/03:30pm 20.6 SW 8 13 - - 0.0 - - - - - - -
20/03:00pm 20.0 SW 9 13 - - 0.0 - - - - - - -
20/02:30pm 19.8 WSW 9 15 - - 0.0 - - - - - - -
20/02:00pm 19.8 WSW 11 15 - - 0.0 - - - - - - -
20/01:30pm 20.3 WSW 9 14 - - 0.0 - - - - - - -
20/01:00pm 20.1 SW 10 15 - - 0.0 - - - - - - -
20/12:30pm 20.2 WSW 10 15 - - 0.0 - - - - - - -
20/12:00pm 20.2 SW 10 15 - - 0.0 - - - - - - -
20/11:30am 19.8 SSW 10 16 - - 0.0 - - - - - - -
20/11:00am 19.7 SW 10 14 - - 0.0 - - - - - - -
20/10:30am 18.7 SW 10 14 - - 0.0 - - - - - - -
20/10:00am 18.7 SW 9 13 - - 0.0 - - - - - - -

Other Formats:

Comma delimited format used in spreadsheet applications
http://www.bom.gov.au/fwo/IDW60701/IDW60701.94614.axf

JavaScript Object Notation format (JSON) in row-major order
http://www.bom.gov.au/fwo/IDW60701/IDW60701.94614.json